Ride Results

Snowy Zone Championships-Neville (31-10-2015)
Ride distance: 100.0 km

Outcomes - Snowy Zone Championships-Neville (31-10-2015)
Division No. of Entries Retired / DNE Completed Withdrawn Ineligible V/O Percentage Completed
HW 3 - 1 1 - 1 33.33%
MW 13 - 10 - - 3 76.92%
LW 7 - 6 - - 1 85.71%
JN 2 - 2 - - - 100.00%
Totals 25 - 19 1 - 5 76.00%
Results - Snowy Zone Championships-Neville (31-10-2015)
No. Rider Horse Place Time Leg Speeds Total
Km/Hr
H/R bpm
Heavyweight
24 Robert Catlin Copperkahn Tiara 1 (BC) 6:41:41 14.1, 16.9, 13.2 14.94 34, 41, 51, 51 (Avg:47)
5 John Howe Ashbend Perazzi Withdrawn L3 0:00:00 - - 39, 48, 59, 58 (Avg:55)
29 Heidi Wade Yinbilliko Shaka Zulu Lame L2 0:00:00 12.2, 13.1 - 38, 47, 57 (Avg:52)
Middleweight
21 Clare Feary Die Kinder Junrei 1 (BC) 6:41:41 14.1, 16.9, 13.2 14.94 44, 41, 48, 49 (Avg:46)
33 Talea Hasko-Stewart Blake's Heaven Bombora 1 6:41:41 14.2, 16.7, 13.3 14.94 38, 48, 60, 54 (Avg:54)
6 Emily Streckfuss Dashanda Serene 3 7:36:48 12.5, 14.1, 12.3 13.13 33, 36, 44, 40 (Avg:40)
20 Anita Ashby Lentara Park Heather 4 7:38:46 14.2, 14.2, 9.8 13.08 40, 49, 52, 56 (Avg:52)
35 April Bonham Ralvon Courier 5 8:03:44 13.2, 13.0, 10.1 12.40 32, 45, 48, 48 (Avg:47)
14 Ellen Vine Castlebar What's The Goss 6 8:18:15 12.6, 12.6, 10.0 12.04 36, 46, 56, 51 (Avg:51)
4 Allana Rempel Ralvon Milarna 7 9:16:47 12.5, 11.5, 7.5 10.78 40, 41, 44, 46 (Avg:43)
9 Victoria Bonham Bridle Track Bogart 8 9:28:21 11.4, 11.1, 8.3 10.56 44, 44, 52, 52 (Avg:49)
11 Louise McCormack Kintamani Silver Eclipse 8 9:28:21 11.4, 11.1, 8.3 10.56 44, 44, 50, 50 (Avg:48)
2 Carol Major Bradali Najmul Fi Samar 10 9:29:55 11.4, 10.7, 8.7 10.53 33, 41, 52, 44 (Avg:45)
36 Jo Davis Immortelle Lame L3 0:00:00 14.6, 12.2, 8.6 - 34, 48, 48, 58 (Avg:51)
37 Ben Hudson Windradyne Sterling Lame L3 0:00:00 12.5, 13.3, 13.2 - 36, 41, 50, 45 (Avg:45)
26 Kristie Wright Coolahlee Park Wahsha Metabolics L2 0:00:00 14.5, 16.2 - 35, 43, 56 (Avg:49)
Lightweight
38 Tracy-Lee Feltrin Littlebanks Integrity 1 7:36:26 12.5, 13.3, 14.0 13.15 36, 48, 52, 49 (Avg:49)
7 April Newman Tarnette 2 (BC) 7:50:32 12.2, 13.1, 12.9 12.75 35, 44, 48, 40 (Avg:44)
32 Fia Hasko-Stewart Blake's Heaven Carousel 3 7:54:46 13.4, 13.4, 10.1 12.64 32, 44, 56, 50 (Avg:50)
8 Sorsha Stuart-Rokvic Al Marah Heyho Silver 4 8:03:48 13.2, 13.0, 10.1 12.40 36, 49, 55, 58 (Avg:54)
19 Danielle Coulton Silver Ridge Navarro 5 8:18:20 12.6, 12.6, 10.0 12.04 34, 42, 48, 45 (Avg:45)
3 Sue Todd Shalacey Bear 6 9:30:12 11.4, 10.7, 8.7 10.52 36, 46, 56, 54 (Avg:52)
12 Cherry Cummins Turingal Park Vassili Lame L2 0:00:00 12.5, 11.5 - 38, 52, 50 (Avg:51)
Junior
30 Celia Hodgson Blake's Heaven Dubonnet 1 (BC) 7:54:55 13.4, 13.4, 10.1 12.63 38, 41, 56, 42 (Avg:46)
34 Gabrielle Worth Douglas 2 9:29:18 11.1, 10.6, 9.3 10.54 34, 44, 55, 56 (Avg:51)